LEAS 150930Z 25007KT 220V290 8000 SCT020 SCT040 09/06 Q1015 NOSIG